Alderley Edge, United Kingdom
Current Conditions -  °F | °C
As of 2:20 PM on Thursday 18 Dec 2014 (Local Time) from EGCC Reporting Station
Broken Clouds Broken Clouds  
Wind Chill: 54°   Ceiling: 2200
Heat Index: 54°   Visibility: 6mi
Dew Point: 50°   Wind: 15mph
Humidity: 88%   Direction: 210°SSW
Pressure: 29.59"   Gusts: NA
Location:  53.3°N, 2.24°W
Report Text: EGCC 181420Z 21013KT 9999 SCT017 BKN022 12/10 Q1002 NOSIG
Loading
Personal Weather Stations






























Interactive Weather Map New forecast layout! Learn more

10-Day Weather Forecast

Advertisements
Track Severe Weather on mobile